createdAt,value
2022-10-20T00:01:25.246Z,4.28
2022-10-20T00:04:10.671Z,6.18
2022-10-20T00:06:56.252Z,5.93
2022-10-20T00:09:41.639Z,4.80
2022-10-20T00:12:27.075Z,4.90
2022-10-20T00:15:12.439Z,4.60
2022-10-20T00:17:57.970Z,4.75
2022-10-20T00:20:44.306Z,5.43
2022-10-20T00:23:29.584Z,3.88
2022-10-20T00:26:17.228Z,4.78
2022-10-20T00:29:04.160Z,6.65
2022-10-20T00:31:49.468Z,4.75
2022-10-20T00:34:34.894Z,4.65
2022-10-20T00:37:20.305Z,4.50
2022-10-20T00:40:06.280Z,5.00
2022-10-20T00:42:51.985Z,5.40
2022-10-20T00:45:37.691Z,5.32
2022-10-20T00:48:28.261Z,4.90
2022-10-20T00:51:16.427Z,6.55
2022-10-20T00:54:16.582Z,4.20
2022-10-20T00:59:48.314Z,5.88
2022-10-20T01:02:33.794Z,5.03
2022-10-20T01:05:19.762Z,5.97
2022-10-20T01:08:05.233Z,5.13
2022-10-20T01:11:16.716Z,4.07
2022-10-20T01:14:36.285Z,3.88
2022-10-20T01:17:30.746Z,5.03
2022-10-20T01:20:18.936Z,5.07
2022-10-20T01:23:19.675Z,4.15
2022-10-20T01:26:10.959Z,4.25
2022-10-20T01:29:25.642Z,4.10
2022-10-20T01:32:29.407Z,5.20
2022-10-20T01:35:21.685Z,4.60
2022-10-20T01:38:59.783Z,4.20
2022-10-20T01:42:00.566Z,3.22
2022-10-20T01:44:48.327Z,4.78
2022-10-20T01:47:36.512Z,5.20
2022-10-20T01:50:22.712Z,3.90
2022-10-20T01:53:08.220Z,3.95
2022-10-20T01:55:56.515Z,4.50
2022-10-20T01:59:11.169Z,3.17
2022-10-20T02:02:10.142Z,3.72
2022-10-20T02:05:07.630Z,3.15
2022-10-20T02:08:03.626Z,3.83
2022-10-20T02:10:52.732Z,4.32
2022-10-20T02:13:39.787Z,4.20
2022-10-20T02:16:40.829Z,3.70
2022-10-20T02:19:31.745Z,3.67
2022-10-20T02:22:19.914Z,4.15
2022-10-20T02:25:05.835Z,4.05
2022-10-20T02:27:52.563Z,4.32
2022-10-20T02:30:40.419Z,3.47
2022-10-20T02:33:26.829Z,4.05
2022-10-20T02:36:18.836Z,4.22
2022-10-20T02:39:04.645Z,3.55
2022-10-20T02:41:51.306Z,4.13
2022-10-20T02:44:37.078Z,4.25
2022-10-20T02:47:23.213Z,4.07
2022-10-20T02:50:09.150Z,4.10
2022-10-20T02:52:54.656Z,5.30
2022-10-20T02:55:41.243Z,4.13
2022-10-20T02:59:54.724Z,3.92
2022-10-20T03:02:40.082Z,4.20
2022-10-20T03:05:27.139Z,5.13
2022-10-20T03:08:13.709Z,4.53
2022-10-20T03:10:59.675Z,4.30
2022-10-20T03:13:45.053Z,3.55
2022-10-20T03:16:30.450Z,3.45
2022-10-20T03:19:15.842Z,3.42
2022-10-20T03:22:01.797Z,4.38
2022-10-20T03:24:46.992Z,3.50
2022-10-20T03:27:32.544Z,4.68
2022-10-20T03:30:18.196Z,3.67
2022-10-20T03:33:03.826Z,3.05
2022-10-20T03:35:49.240Z,5.25
2022-10-20T03:38:34.909Z,5.15
2022-10-20T03:41:20.325Z,4.88
2022-10-20T03:44:05.902Z,4.65
2022-10-20T03:46:51.739Z,4.78
2022-10-20T03:49:37.445Z,6.93
2022-10-20T03:52:23.098Z,6.15
2022-10-20T03:55:09.261Z,4.78
2022-10-20T03:57:55.125Z,4.55
2022-10-20T04:00:40.553Z,5.25
2022-10-20T04:03:25.861Z,4.13
2022-10-20T04:06:15.842Z,5.70
2022-10-20T04:09:01.565Z,5.35
2022-10-20T04:11:47.286Z,6.70
2022-10-20T04:14:32.836Z,6.05
2022-10-20T04:17:20.815Z,4.47
2022-10-20T04:20:07.864Z,5.50
2022-10-20T04:22:53.829Z,5.75
2022-10-20T04:25:45.960Z,5.20
2022-10-20T04:28:31.612Z,4.45
2022-10-20T04:31:17.111Z,3.45
2022-10-20T04:34:02.775Z,4.22
2022-10-20T04:36:48.043Z,3.85
2022-10-20T04:39:33.566Z,4.53
2022-10-20T04:42:19.875Z,4.13
2022-10-20T04:45:06.109Z,4.57
2022-10-20T04:47:51.381Z,4.43
2022-10-20T04:50:36.563Z,4.10
2022-10-20T04:53:25.689Z,4.97
2022-10-20T04:56:14.883Z,4.57
2022-10-20T04:59:00.483Z,5.57
2022-10-20T05:01:46.253Z,5.07
2022-10-20T05:04:31.987Z,5.47
2022-10-20T05:07:17.742Z,5.72
2022-10-20T05:10:03.516Z,5.25
2022-10-20T05:12:48.740Z,5.00
2022-10-20T05:15:34.248Z,5.93
2022-10-20T05:18:19.967Z,6.40
2022-10-20T05:21:14.904Z,7.40
2022-10-20T05:24:02.416Z,7.22
2022-10-20T05:26:48.362Z,5.13
2022-10-20T05:29:34.276Z,6.18
2022-10-20T05:32:19.676Z,4.80
2022-10-20T05:35:05.525Z,4.43
2022-10-20T05:37:50.659Z,5.50
2022-10-20T05:40:36.246Z,5.22
2022-10-20T05:43:21.848Z,6.22
2022-10-20T05:46:09.010Z,5.43
2022-10-20T05:48:57.843Z,6.65
2022-10-20T05:51:44.790Z,6.35
2022-10-20T05:54:30.703Z,6.80
2022-10-20T05:57:16.199Z,4.55
2022-10-20T06:00:01.687Z,5.70
2022-10-20T06:02:58.200Z,6.03
2022-10-20T06:05:43.774Z,5.18
2022-10-20T06:08:33.595Z,4.35
2022-10-20T06:11:19.686Z,6.43
2022-10-20T06:14:05.868Z,5.97
2022-10-20T06:16:52.489Z,5.85
2022-10-20T06:19:38.051Z,5.68
2022-10-20T06:22:23.638Z,9.90
2022-10-20T06:25:09.273Z,7.68
2022-10-20T06:27:55.022Z,6.13
2022-10-20T06:30:40.908Z,6.78
2022-10-20T06:33:30.359Z,7.28
2022-10-20T06:36:16.440Z,7.15
2022-10-20T06:39:04.594Z,7.03
2022-10-20T06:44:39.498Z,7.53
2022-10-20T06:47:25.125Z,8.07
2022-10-20T06:50:10.526Z,10.45
2022-10-20T06:52:55.754Z,7.53
2022-10-20T06:55:41.368Z,9.98
2022-10-20T06:58:29.345Z,16.17
2022-10-20T07:01:23.775Z,13.65
2022-10-20T07:04:16.019Z,11.55
2022-10-20T07:07:01.120Z,8.27
2022-10-20T07:09:46.772Z,12.57
2022-10-20T07:12:32.121Z,11.48
2022-10-20T07:15:17.835Z,11.95
2022-10-20T07:18:02.850Z,11.52
2022-10-20T07:20:48.342Z,8.52
2022-10-20T07:23:35.342Z,11.25
2022-10-20T07:26:25.572Z,7.27
2022-10-20T07:29:11.615Z,8.27
2022-10-20T07:31:59.939Z,7.97
2022-10-20T07:34:47.342Z,9.50
2022-10-20T07:37:33.004Z,6.43
2022-10-20T07:40:18.362Z,7.22
2022-10-20T07:43:04.166Z,6.32
2022-10-20T07:45:50.440Z,7.78
2022-10-20T07:48:36.600Z,7.07
2022-10-20T07:51:21.877Z,6.70
2022-10-20T07:54:09.263Z,6.75
2022-10-20T07:56:54.840Z,5.78
2022-10-20T07:59:40.501Z,6.63
2022-10-20T08:02:26.226Z,5.47
2022-10-20T08:05:11.810Z,5.53
2022-10-20T08:07:58.322Z,8.88
2022-10-20T08:10:44.151Z,7.00
2022-10-20T08:13:29.996Z,6.40
2022-10-20T08:16:31.615Z,7.07
2022-10-20T08:19:22.961Z,4.82
2022-10-20T08:22:08.730Z,4.95
2022-10-20T08:24:54.375Z,6.90
2022-10-20T08:27:39.899Z,5.95
2022-10-20T08:30:25.069Z,5.28
2022-10-20T08:33:10.799Z,5.97
2022-10-20T08:35:56.591Z,5.78
2022-10-20T08:38:43.439Z,6.22
2022-10-20T08:41:43.502Z,6.35
2022-10-20T08:44:44.586Z,6.25
2022-10-20T08:47:33.639Z,6.43
2022-10-20T08:50:21.756Z,5.47
2022-10-20T08:53:06.976Z,5.22
2022-10-20T08:55:54.448Z,5.57
2022-10-20T08:58:44.899Z,7.70
2022-10-20T09:01:36.055Z,6.88
2022-10-20T09:04:27.870Z,5.57
2022-10-20T09:07:25.709Z,5.53
2022-10-20T09:10:31.580Z,7.10
2022-10-20T09:13:25.174Z,6.03
2022-10-20T09:16:33.348Z,5.70
2022-10-20T09:19:27.191Z,4.57
2022-10-20T09:22:14.834Z,4.15
2022-10-20T09:25:00.625Z,4.13
2022-10-20T09:27:46.497Z,4.47
2022-10-20T09:30:36.163Z,4.50
2022-10-20T09:33:30.795Z,4.05
2022-10-20T09:36:19.205Z,4.32
2022-10-20T09:39:04.563Z,4.53
2022-10-20T09:41:59.264Z,4.35
2022-10-20T09:44:56.204Z,3.75
2022-10-20T09:47:45.956Z,3.67
2022-10-20T09:50:39.252Z,3.97
2022-10-20T09:53:32.540Z,3.70
2022-10-20T09:56:44.639Z,4.15
2022-10-20T09:59:35.272Z,3.95
2022-10-20T10:02:20.826Z,4.75
2022-10-20T10:05:15.951Z,4.57
2022-10-20T10:08:01.554Z,3.70
2022-10-20T10:10:59.773Z,4.38
2022-10-20T10:13:47.369Z,3.85
2022-10-20T10:16:41.873Z,3.95
2022-10-20T10:19:30.589Z,4.50
2022-10-20T10:22:15.930Z,4.13
2022-10-20T10:25:02.076Z,4.40
2022-10-20T10:28:00.650Z,3.60
2022-10-20T10:33:35.711Z,4.05
2022-10-20T10:36:31.583Z,3.97
2022-10-20T10:39:17.012Z,3.17
2022-10-20T10:42:27.425Z,4.20
2022-10-20T10:45:45.622Z,3.60
2022-10-20T10:48:46.406Z,3.90
2022-10-20T10:51:37.983Z,3.60
2022-10-20T10:54:29.248Z,3.75
2022-10-20T10:57:43.825Z,3.63
2022-10-20T11:00:44.580Z,4.10
2022-10-20T11:03:48.318Z,3.17
2022-10-20T11:06:45.117Z,3.47
2022-10-20T11:09:53.069Z,3.75
2022-10-20T11:13:03.791Z,3.53
2022-10-20T11:16:17.614Z,3.33
2022-10-20T11:19:21.583Z,3.13
2022-10-20T11:22:21.651Z,3.85
2022-10-20T11:25:23.090Z,3.53
2022-10-20T11:28:44.267Z,3.78
2022-10-20T11:31:41.798Z,4.20
2022-10-20T11:34:54.764Z,3.28
2022-10-20T11:38:04.054Z,3.75
2022-10-20T11:41:08.205Z,3.78
2022-10-20T11:44:14.841Z,3.45
2022-10-20T11:47:11.424Z,3.97
2022-10-20T11:49:57.075Z,4.10
2022-10-20T11:53:24.196Z,3.38
2022-10-20T11:56:15.636Z,4.18
2022-10-20T11:59:25.303Z,3.58
2022-10-20T12:02:42.126Z,4.50
2022-10-20T12:05:46.372Z,4.03
2022-10-20T12:08:50.824Z,4.13
2022-10-20T12:11:39.204Z,3.30
2022-10-20T12:14:37.910Z,3.40
2022-10-20T12:17:41.621Z,3.97
2022-10-20T12:20:27.348Z,3.70
2022-10-20T12:23:44.772Z,3.80
2022-10-20T12:26:30.586Z,4.30
2022-10-20T12:29:31.167Z,3.08
2022-10-20T12:32:25.973Z,3.60
2022-10-20T12:35:11.644Z,3.13
2022-10-20T12:38:04.657Z,3.58
2022-10-20T12:40:55.666Z,3.15
2022-10-20T12:43:53.536Z,3.38
2022-10-20T12:46:44.504Z,2.78
2022-10-20T12:49:36.564Z,3.45
2022-10-20T12:52:27.457Z,3.67
2022-10-20T12:55:25.583Z,3.58
2022-10-20T12:58:17.543Z,3.47
2022-10-20T13:01:11.798Z,3.22
2022-10-20T13:03:57.676Z,3.35
2022-10-20T13:06:42.986Z,4.00
2022-10-20T13:09:28.243Z,3.05
2022-10-20T13:12:29.062Z,3.45
2022-10-20T13:15:18.418Z,3.58
2022-10-20T13:18:11.687Z,2.85
2022-10-20T13:21:19.750Z,2.45
2022-10-20T13:24:30.647Z,3.30
2022-10-20T13:27:16.781Z,2.80
2022-10-20T13:30:07.567Z,3.45
2022-10-20T13:33:33.397Z,3.35
2022-10-20T13:36:29.269Z,3.47
2022-10-20T13:39:33.576Z,3.33
2022-10-20T13:42:19.055Z,3.22
2022-10-20T13:45:13.841Z,4.03
2022-10-20T13:48:14.500Z,3.22
2022-10-20T13:51:05.099Z,2.83
2022-10-20T13:53:54.604Z,3.40
2022-10-20T13:56:46.405Z,2.80
2022-10-20T13:59:31.999Z,3.40
2022-10-20T14:02:27.998Z,3.85
2022-10-20T14:05:14.001Z,4.10
2022-10-20T14:08:04.583Z,3.13
2022-10-20T14:11:04.630Z,2.72
2022-10-20T14:13:51.024Z,3.10
2022-10-20T14:16:37.755Z,3.05
2022-10-20T14:19:28.105Z,3.30
2022-10-20T14:22:24.345Z,3.38
2022-10-20T14:25:11.954Z,3.15
2022-10-20T14:27:59.232Z,3.70
2022-10-20T14:30:44.917Z,3.63
2022-10-20T14:33:31.201Z,3.75
2022-10-20T14:36:19.741Z,8.35
2022-10-20T14:39:05.099Z,4.00
2022-10-20T14:41:50.492Z,3.55
2022-10-20T14:44:36.240Z,2.83
2022-10-20T14:47:21.695Z,3.35
2022-10-20T14:50:19.098Z,3.08
2022-10-20T14:53:25.230Z,2.92
2022-10-20T14:56:24.123Z,3.90
2022-10-20T14:59:19.112Z,5.05
2022-10-20T15:02:12.134Z,3.92
2022-10-20T15:05:17.195Z,4.00
2022-10-20T15:08:26.317Z,4.95
2022-10-20T15:11:22.779Z,3.47
2022-10-20T15:14:15.790Z,3.60
2022-10-20T15:17:01.284Z,3.85
2022-10-20T15:19:46.916Z,4.38
2022-10-20T15:22:32.519Z,4.28
2022-10-20T15:25:18.000Z,4.65
2022-10-20T15:28:03.386Z,3.53
2022-10-20T15:30:49.414Z,3.88
2022-10-20T15:33:34.873Z,4.70
2022-10-20T15:36:22.946Z,5.15
2022-10-20T15:39:08.912Z,4.40
2022-10-20T15:41:54.491Z,3.65
2022-10-20T15:44:40.136Z,4.50
2022-10-20T15:47:26.173Z,5.35
2022-10-20T15:50:12.811Z,4.07
2022-10-20T15:52:58.278Z,8.23
2022-10-20T15:55:43.999Z,23.55
2022-10-20T15:58:29.449Z,39.08
2022-10-20T16:01:16.993Z,40.70
2022-10-20T16:04:14.245Z,28.67
2022-10-20T16:07:03.178Z,29.73
2022-10-20T16:09:48.653Z,29.58
2022-10-20T16:12:34.452Z,65.00
2022-10-20T16:15:20.480Z,29.48
2022-10-20T16:18:08.944Z,15.50
2022-10-20T16:20:57.862Z,11.85
2022-10-20T16:23:44.925Z,13.90
2022-10-20T16:26:30.372Z,10.88
2022-10-20T16:29:15.872Z,14.20
2022-10-20T16:32:01.526Z,17.02
2022-10-20T16:34:47.147Z,68.55
2022-10-20T16:37:33.061Z,25.48
2022-10-20T16:40:19.560Z,29.80
2022-10-20T16:43:06.064Z,25.50
2022-10-20T16:45:51.638Z,24.05
2022-10-20T16:48:40.445Z,22.10
2022-10-20T16:51:28.147Z,32.97
2022-10-20T16:54:13.661Z,25.83
2022-10-20T16:56:59.134Z,20.05
2022-10-20T16:59:49.899Z,20.35
2022-10-20T17:02:36.176Z,25.88
2022-10-20T17:05:26.493Z,26.65
2022-10-20T17:08:12.537Z,26.40
2022-10-20T17:11:03.183Z,22.33
2022-10-20T17:13:48.891Z,21.48
2022-10-20T17:16:35.247Z,22.38
2022-10-20T17:19:20.567Z,20.25
2022-10-20T17:22:06.091Z,23.70
2022-10-20T17:24:51.672Z,21.55
2022-10-20T17:27:37.094Z,22.67
2022-10-20T17:30:22.583Z,16.60
2022-10-20T17:33:08.887Z,15.73
2022-10-20T17:35:55.325Z,17.35
2022-10-20T17:38:42.389Z,19.48
2022-10-20T17:41:28.182Z,22.52
2022-10-20T17:44:14.299Z,23.67
2022-10-20T17:47:01.551Z,19.63
2022-10-20T17:49:47.123Z,17.67
2022-10-20T17:52:32.681Z,21.90
2022-10-20T17:55:18.419Z,25.27
2022-10-20T17:58:05.932Z,24.23
2022-10-20T18:00:56.353Z,35.00
2022-10-20T18:03:44.481Z,39.15
2022-10-20T18:06:34.130Z,22.40
2022-10-20T18:09:20.194Z,15.57
2022-10-20T18:12:05.921Z,13.65
2022-10-20T18:14:51.505Z,16.27
2022-10-20T18:17:36.977Z,15.45
2022-10-20T18:20:22.618Z,14.70
2022-10-20T18:23:08.226Z,14.45
2022-10-20T18:25:55.043Z,13.80
2022-10-20T18:28:43.186Z,13.48
2022-10-20T18:31:32.726Z,14.43
2022-10-20T18:34:22.338Z,11.43
2022-10-20T18:37:07.925Z,12.20
2022-10-20T18:39:53.474Z,11.45
2022-10-20T18:42:39.280Z,11.85
2022-10-20T18:45:26.005Z,13.55
2022-10-20T18:48:11.594Z,14.32
2022-10-20T18:51:01.816Z,19.23
2022-10-20T18:53:47.721Z,26.17
2022-10-20T18:56:34.348Z,13.15
2022-10-20T18:59:19.893Z,13.52
2022-10-20T19:02:05.102Z,10.70
2022-10-20T19:04:50.868Z,13.32
2022-10-20T19:07:36.635Z,12.50
2022-10-20T19:10:22.381Z,10.30
2022-10-20T19:13:07.845Z,10.20
2022-10-20T19:15:54.210Z,10.88
2022-10-20T19:18:40.673Z,10.35
2022-10-20T19:21:28.468Z,8.75
2022-10-20T19:30:10.219Z,7.18
2022-10-20T19:32:56.544Z,7.00
2022-10-20T19:35:41.609Z,7.60
2022-10-20T19:38:27.152Z,7.10
2022-10-20T19:41:12.889Z,7.80
2022-10-20T19:43:58.175Z,7.63
2022-10-20T19:46:46.462Z,7.35
2022-10-20T19:49:32.238Z,6.25
2022-10-20T19:52:17.702Z,14.32
2022-10-20T19:55:03.550Z,13.02
2022-10-20T19:57:48.972Z,10.77
2022-10-20T20:00:34.651Z,10.70
2022-10-20T20:03:20.335Z,9.77
2022-10-20T20:06:11.505Z,10.27
2022-10-20T20:08:59.510Z,16.38
2022-10-20T20:11:44.972Z,11.93
2022-10-20T20:14:30.500Z,9.32
2022-10-20T20:17:15.934Z,10.73
2022-10-20T20:20:01.305Z,23.73
2022-10-20T20:22:46.879Z,18.13
2022-10-20T20:25:37.000Z,16.83
2022-10-20T20:28:22.204Z,12.85
2022-10-20T20:31:11.581Z,17.85
2022-10-20T20:33:57.414Z,17.48
2022-10-20T20:36:43.026Z,18.17
2022-10-20T20:39:28.576Z,18.25
2022-10-20T20:42:14.088Z,15.95
2022-10-20T20:45:01.799Z,17.17
2022-10-20T20:47:47.997Z,13.88
2022-10-20T20:50:33.681Z,15.07
2022-10-20T20:53:19.245Z,12.55
2022-10-20T20:56:15.859Z,15.20
2022-10-20T20:59:01.317Z,10.73
2022-10-20T21:01:46.902Z,12.35
2022-10-20T21:04:32.550Z,11.70
2022-10-20T21:07:17.706Z,9.77
2022-10-20T21:10:03.656Z,9.50
2022-10-20T21:12:49.197Z,8.00
2022-10-20T21:15:34.763Z,9.90
2022-10-20T21:18:20.144Z,8.27
2022-10-20T21:21:08.680Z,8.52
2022-10-20T21:23:55.663Z,8.30
2022-10-20T21:26:41.039Z,7.97
2022-10-20T21:29:26.578Z,8.60
2022-10-20T21:32:12.296Z,9.13
2022-10-20T21:34:57.733Z,7.13
2022-10-20T21:37:43.155Z,7.75
2022-10-20T21:40:28.764Z,8.02
2022-10-20T21:43:14.243Z,7.45
2022-10-20T21:46:13.150Z,8.63
2022-10-20T21:49:05.103Z,9.35
2022-10-20T21:51:53.358Z,8.32
2022-10-20T21:54:38.927Z,9.57
2022-10-20T21:57:24.255Z,6.75
2022-10-20T22:00:10.287Z,7.22
2022-10-20T22:02:55.815Z,7.70
2022-10-20T22:05:41.044Z,7.53
2022-10-20T22:08:26.501Z,8.27
2022-10-20T22:11:15.553Z,7.47
2022-10-20T22:14:00.956Z,7.35
2022-10-20T22:16:47.285Z,8.00
2022-10-20T22:19:32.444Z,9.90
2022-10-20T22:22:17.929Z,13.13
2022-10-20T22:25:03.392Z,13.45
2022-10-20T22:27:48.976Z,13.75
2022-10-20T22:30:35.099Z,11.52
2022-10-20T22:33:20.399Z,9.93
2022-10-20T22:36:05.698Z,7.72
2022-10-20T22:38:51.814Z,8.75
2022-10-20T22:41:37.103Z,8.75
2022-10-20T22:44:23.052Z,10.02
2022-10-20T22:47:08.566Z,8.68
2022-10-20T22:49:53.763Z,9.75
2022-10-20T22:52:40.054Z,11.68
2022-10-20T22:55:25.728Z,14.75
2022-10-20T22:58:11.414Z,9.05
2022-10-20T23:00:56.851Z,9.13
2022-10-20T23:03:42.410Z,10.05
2022-10-20T23:06:28.070Z,11.38
2022-10-20T23:09:13.627Z,9.75
2022-10-20T23:11:59.067Z,9.48
2022-10-20T23:14:44.398Z,9.48
2022-10-20T23:17:29.937Z,8.15
2022-10-20T23:20:15.412Z,9.25
2022-10-20T23:23:00.761Z,9.70
2022-10-20T23:25:49.425Z,9.82
2022-10-20T23:28:36.588Z,9.80
2022-10-20T23:31:22.350Z,10.70
2022-10-20T23:34:09.260Z,12.73
2022-10-20T23:36:55.016Z,13.07
2022-10-20T23:39:40.210Z,10.25
2022-10-20T23:42:25.923Z,9.35
2022-10-20T23:45:11.658Z,9.32
2022-10-20T23:47:57.378Z,10.18
2022-10-20T23:50:43.681Z,8.77
2022-10-20T23:53:28.825Z,8.95
2022-10-20T23:56:15.648Z,9.60
2022-10-20T23:59:01.242Z,8.23
